Time;durP1;ratioP1;P1;durP2;ratioP2;P2;SDS_P1;SDS_P2;PMS_P1;PMS_P2;Temp;Humidity;BMP_temperature;BMP_pressure;BME280_temperature;BME280_humidity;BME280_pressure;Samples;Min_cycle;Max_cycle;Signal;HPM_P1;HPM_P2
2023/03/06 00:00:54;;;;;;;2.17;1.70;;;;;;;9.46;100.00;99282.84;7398960;19;20018;-55
2023/03/06 00:03:21;;;;;;;6.88;2.47;;;;;;;9.04;100.00;99283.91;7398599;19;20053;-55
2023/03/06 00:05:47;;;;;;;5.63;2.47;;;;;;;5.96;100.00;99293.53;7399498;19;20017;-55
2023/03/06 00:08:14;;;;;;;5.90;2.60;;;;;;;4.85;100.00;99289.19;7399654;19;20017;-55
2023/03/06 00:10:40;;;;;;;1.73;1.20;;;;;;;4.06;100.00;99291.66;7399863;19;20006;-55
2023/03/06 00:13:11;;;;;;;0.82;0.82;;;;;;;4.72;100.00;99276.72;7397987;19;20022;-56
2023/03/06 00:15:37;;;;;;;4.70;2.30;;;;;;;5.88;100.00;99269.41;7397950;19;20010;-55
2023/03/06 00:18:04;;;;;;;5.10;2.22;;;;;;;5.19;100.00;99275.31;7403328;19;20006;-56
2023/03/06 00:20:32;;;;;;;4.05;2.20;;;;;;;4.60;100.00;99276.34;7402728;19;20015;-56
2023/03/06 00:22:58;;;;;;;8.02;2.72;;;;;;;5.16;100.00;99265.16;7398049;19;20015;-56
2023/03/06 00:25:25;;;;;;;7.80;1.55;;;;;;;4.81;100.00;99265.75;7398494;19;20079;-56
2023/03/06 00:27:51;;;;;;;1.02;1.02;;;;;;;6.07;100.00;99257.94;7402059;19;20015;-56
2023/03/06 00:30:21;;;;;;;5.43;2.88;;;;;;;5.22;100.00;99268.09;7398230;19;20048;-56
2023/03/06 00:32:48;;;;;;;2.67;2.03;;;;;;;5.59;100.00;99264.25;7397250;19;20015;-57
2023/03/06 00:35:15;;;;;;;1.98;1.45;;;;;;;4.89;100.00;99267.03;7397508;19;20011;-57
2023/03/06 00:37:43;;;;;;;5.38;2.30;;;;;;;9.79;100.00;99249.94;7396574;19;20073;-58
2023/03/06 00:40:13;;;;;;;4.38;2.65;;;;;;;6.75;100.00;99247.44;7397161;19;20014;-58
2023/03/06 00:42:39;;;;;;;1.90;1.77;;;;;;;7.32;100.00;99256.66;7398969;19;20017;-57
2023/03/06 00:45:06;;;;;;;1.67;1.58;;;;;;;5.70;100.00;99248.00;7398535;19;20471;-57
2023/03/06 00:47:33;;;;;;;4.18;1.63;;;;;;;6.02;100.00;99247.47;7399733;19;20025;-57
2023/03/06 00:49:59;;;;;;;1.90;1.73;;;;;;;5.92;100.00;99245.16;7396321;19;20407;-58
2023/03/06 00:52:25;;;;;;;4.82;2.58;;;;;;;6.16;100.00;99232.28;7400556;19;20384;-57
2023/03/06 00:54:51;;;;;;;15.73;3.40;;;;;;;5.11;100.00;99245.69;7395778;19;20697;-57
2023/03/06 00:57:18;;;;;;;5.00;1.60;;;;;;;4.83;100.00;99230.22;7392447;19;20460;-57
2023/03/06 00:59:44;;;;;;;4.72;2.88;;;;;;;5.22;100.00;99223.94;7394222;19;20351;-57
2023/03/06 01:02:12;;;;;;;3.80;1.98;;;;;;;6.20;100.00;99218.28;7399050;19;20474;-57
2023/03/06 01:04:39;;;;;;;3.15;1.80;;;;;;;9.91;100.00;99207.16;7396277;19;20015;-57
2023/03/06 01:07:05;;;;;;;4.03;1.88;;;;;;;10.16;100.00;99200.13;7399671;19;20492;-58
2023/03/06 01:09:31;;;;;;;2.35;1.98;;;;;;;11.56;100.00;99200.88;7394892;19;20396;-57
2023/03/06 01:11:57;;;;;;;3.45;2.03;;;;;;;11.15;100.00;99194.75;7399454;19;20017;-57
2023/03/06 01:14:24;;;;;;;0.70;0.70;;;;;;;11.62;100.00;99193.28;7397718;19;20090;-57
2023/03/06 01:16:50;;;;;;;2.30;1.88;;;;;;;12.50;100.00;99184.50;7394509;19;20021;-57
2023/03/06 01:19:17;;;;;;;4.55;1.92;;;;;;;8.31;100.00;99191.50;7394117;19;20038;-58
2023/03/06 01:21:44;;;;;;;5.07;1.30;;;;;;;6.56;100.00;99190.63;7398982;19;20010;-58
2023/03/06 01:24:11;;;;;;;1.67;1.38;;;;;;;6.23;100.00;99184.22;7394092;19;20031;-58
2023/03/06 01:26:37;;;;;;;2.20;2.03;;;;;;;6.10;100.00;99184.38;7392434;19;20014;-58
2023/03/06 01:29:03;;;;;;;2.92;2.65;;;;;;;6.00;100.00;99172.53;7395572;19;20014;-58
2023/03/06 01:31:29;;;;;;;1.00;0.93;;;;;;;5.93;100.00;99167.31;7396949;19;20090;-57
2023/03/06 01:33:55;;;;;;;1.92;1.83;;;;;;;5.83;100.00;99162.22;7397402;19;20099;-57
2023/03/06 01:36:22;;;;;;;7.38;2.53;;;;;;;5.79;100.00;99167.13;7392927;19;20034;-57
2023/03/06 01:38:48;;;;;;;5.32;1.58;;;;;;;5.23;100.00;99164.75;7394723;19;20018;-57
2023/03/06 01:41:16;;;;;;;2.17;1.42;;;;;;;5.00;100.00;99157.03;7397355;19;20011;-57
2023/03/06 01:43:46;;;;;;;2.17;1.27;;;;;;;5.85;100.00;99151.50;7394539;19;20530;-57
2023/03/06 01:46:15;;;;;;;0.63;0.63;;;;;;;4.90;100.00;99152.69;7393670;19;20400;-57
2023/03/06 01:48:43;;;;;;;1.73;1.00;;;;;;;4.91;100.00;99137.69;7394642;19;20507;-57
2023/03/06 01:51:11;;;;;;;1.92;1.73;;;;;;;6.44;100.00;99133.47;7395284;19;20015;-57
2023/03/06 01:53:40;;;;;;;0.85;0.85;;;;;;;5.02;100.00;99147.06;7397579;19;20011;-57
2023/03/06 01:56:06;;;;;;;1.17;0.57;;;;;;;4.95;100.00;99132.78;7392067;19;20015;-57
2023/03/06 01:58:33;;;;;;;1.60;1.35;;;;;;;4.95;100.00;99138.28;7396619;19;20100;-57
2023/03/06 02:00:59;;;;;;;1.73;0.93;;;;;;;4.85;100.00;99128.47;7393799;19;20010;-57
2023/03/06 02:03:26;;;;;;;2.38;1.52;;;;;;;4.78;100.00;99117.69;7393348;19;20014;-57
2023/03/06 02:05:53;;;;;;;1.90;1.33;;;;;;;4.74;100.00;99111.56;7391516;19;20367;-57
2023/03/06 02:08:22;;;;;;;1.00;0.77;;;;;;;4.72;100.00;99102.97;7391910;19;20021;-57
2023/03/06 02:11:01;;;;;;;0.68;0.68;;;;;;;4.74;100.00;99117.84;7395149;19;20011;-56
2023/03/06 02:13:28;;;;;;;0.70;0.70;;;;;;;5.05;100.00;99109.50;7398468;19;20011;-57
2023/03/06 02:15:55;;;;;;;4.97;1.40;;;;;;;5.63;100.00;99096.38;7392787;19;20355;-57
2023/03/06 02:18:22;;;;;;;4.05;1.75;;;;;;;6.07;100.00;99094.84;7398095;19;20101;-57
2023/03/06 02:20:53;;;;;;;0.57;0.57;;;;;;;5.10;100.00;99095.88;7393237;19;20017;-58
2023/03/06 02:23:52;;;;;;;1.45;1.40;;;;;;;4.59;100.00;99094.81;7396500;19;20018;-57
2023/03/06 02:26:20;;;;;;;2.70;0.68;;;;;;;4.54;100.00;99090.66;7389640;19;20487;-57
2023/03/06 02:28:47;;;;;;;1.15;1.13;;;;;;;7.09;100.00;99083.69;7390910;19;20053;-57
2023/03/06 02:31:26;;;;;;;1.05;1.05;;;;;;;5.56;100.00;99069.09;7394240;19;20070;-57
2023/03/06 02:34:06;;;;;;;0.65;0.65;;;;;;;4.96;100.00;99068.84;7391292;19;20018;-57
2023/03/06 02:36:40;;;;;;;0.43;0.43;;;;;;;4.93;100.00;99064.28;7392155;19;20522;-56
2023/03/06 02:39:07;;;;;;;0.85;0.70;;;;;;;4.78;100.00;99060.56;7390655;19;20459;-57
2023/03/06 02:41:33;;;;;;;0.25;0.25;;;;;;;4.72;100.00;99059.59;7392663;19;20066;-56
2023/03/06 02:44:00;;;;;;;1.55;0.82;;;;;;;4.83;100.00;99061.94;7396952;19;20018;-57
2023/03/06 02:46:28;;;;;;;1.55;0.70;;;;;;;5.17;100.00;99047.91;7391456;19;20011;-57
2023/03/06 02:48:54;;;;;;;1.35;1.20;;;;;;;4.92;100.00;99042.63;7390124;19;20018;-57
2023/03/06 02:51:21;;;;;;;0.45;0.32;;;;;;;4.89;100.00;99036.06;7391138;19;20010;-57
2023/03/06 02:53:48;;;;;;;1.05;0.95;;;;;;;5.13;100.00;99022.47;7390276;19;20045;-57
2023/03/06 02:56:15;;;;;;;4.20;1.25;;;;;;;5.77;100.00;99020.41;7391816;19;20091;-57
2023/03/06 02:58:41;;;;;;;1.10;0.77;;;;;;;6.45;100.00;99014.09;7391778;19;20019;-57
2023/03/06 03:01:08;;;;;;;0.60;0.60;;;;;;;7.00;100.00;99009.00;7391602;19;20027;-57
2023/03/06 03:03:34;;;;;;;0.65;0.63;;;;;;;5.98;100.00;99017.47;7391812;19;20078;-57
2023/03/06 03:06:04;;;;;;;0.70;0.70;;;;;;;6.98;100.00;99010.72;7392237;19;20035;-57
2023/03/06 03:08:33;;;;;;;1.98;1.38;;;;;;;9.95;100.00;99001.88;7397374;19;20031;-57
2023/03/06 03:11:03;;;;;;;0.73;0.65;;;;;;;9.77;100.00;99013.31;7401226;19;20467;-57
2023/03/06 03:13:36;;;;;;;0.40;0.40;;;;;;;9.41;100.00;99003.59;7399420;19;20010;-57
2023/03/06 03:16:09;;;;;;;0.63;0.63;;;;;;;10.45;100.00;99000.31;7398271;19;20022;-57
2023/03/06 03:18:36;;;;;;;0.40;0.40;;;;;;;10.35;100.00;98985.03;7402859;19;20007;-57
2023/03/06 03:21:10;;;;;;;2.65;1.63;;;;;;;10.39;100.00;98985.59;7398615;19;20014;-57
2023/03/06 03:23:36;;;;;;;1.38;1.27;;;;;;;9.88;100.00;98988.41;7397705;19;20018;-58
2023/03/06 03:26:13;;;;;;;0.45;0.45;;;;;;;10.13;100.00;98986.91;7398013;19;20035;-57
2023/03/06 03:28:43;;;;;;;0.55;0.55;;;;;;;9.46;100.00;98969.56;7397105;19;20011;-57
2023/03/06 03:31:12;;;;;;;3.75;1.05;;;;;;;8.85;100.00;98966.06;7401116;19;20014;-57
2023/03/06 03:33:39;;;;;;;0.95;0.88;;;;;;;10.87;100.00;98960.53;7397162;19;20013;-57
2023/03/06 03:36:07;;;;;;;3.30;1.08;;;;;;;11.07;100.00;98954.03;7396924;19;20344;-57
2023/03/06 03:38:36;;;;;;;1.20;1.02;;;;;;;11.12;100.00;98953.31;7397983;19;20009;-57
2023/03/06 03:41:03;;;;;;;1.98;1.15;;;;;;;11.07;100.00;98951.25;7402988;19;20462;-57
2023/03/06 03:43:30;;;;;;;0.40;0.40;;;;;;;9.23;100.00;98942.78;7398608;19;20025;-57
2023/03/06 03:45:57;;;;;;;1.27;1.17;;;;;;;10.19;100.00;98949.50;7397211;19;20039;-57
2023/03/06 03:48:25;;;;;;;1.08;0.93;;;;;;;10.27;100.00;98945.00;7402038;19;20021;-57
2023/03/06 03:50:51;;;;;;;0.60;0.60;;;;;;;10.18;100.00;98936.84;7398816;19;20347;-58
2023/03/06 03:53:19;;;;;;;0.63;0.50;;;;;;;10.39;100.00;98929.94;7399725;19;20010;-57
2023/03/06 03:55:47;;;;;;;0.50;0.50;;;;;;;9.52;100.00;98925.16;7399947;19;20021;-58
2023/03/06 03:58:14;;;;;;;1.02;0.93;;;;;;;10.86;100.00;98930.41;7396756;19;20018;-57
2023/03/06 04:00:40;;;;;;;1.55;1.00;;;;;;;11.00;100.00;98926.69;7398980;19;20031;-57
2023/03/06 04:03:12;;;;;;;0.45;0.45;;;;;;;10.99;100.00;98922.34;7397789;19;20356;-57
2023/03/06 04:05:41;;;;;;;0.80;0.80;;;;;;;11.18;100.00;98926.22;7397515;19;20062;-57
2023/03/06 04:08:09;;;;;;;0.80;0.80;;;;;;;11.18;100.00;98918.63;7396672;19;20042;-57
2023/03/06 04:10:39;;;;;;;1.63;1.33;;;;;;;11.11;100.00;98915.59;7396634;19;20350;-57
2023/03/06 04:13:07;;;;;;;0.38;0.38;;;;;;;11.18;100.00;98912.28;7395995;19;20076;-57
2023/03/06 04:15:33;;;;;;;1.33;1.15;;;;;;;11.19;100.00;98922.19;7401259;19;20018;-57
2023/03/06 04:18:01;;;;;;;1.08;1.05;;;;;;;11.31;100.00;98896.63;7400089;19;20039;-57
2023/03/06 04:20:29;;;;;;;3.78;1.35;;;;;;;11.30;100.00;98916.66;7396688;19;20014;-57
2023/03/06 04:22:58;;;;;;;0.70;0.70;;;;;;;11.24;100.00;98907.50;7396238;19;20373;-57
2023/03/06 04:25:25;;;;;;;0.70;0.70;;;;;;;11.22;100.00;98907.22;7396212;19;20022;-94
2023/03/06 04:27:51;;;;;;;0.68;0.68;;;;;;;11.16;100.00;98886.94;7395298;19;20365;-95
2023/03/06 04:30:17;;;;;;;0.98;0.98;;;;;;;11.32;100.00;98897.38;7392800;19;20022;-95
2023/03/06 04:32:43;;;;;;;1.05;0.75;;;;;;;11.56;100.00;98894.13;7394443;19;20013;-94
2023/03/06 04:35:10;;;;;;;0.75;0.75;;;;;;;11.67;100.00;98886.56;7393785;19;20494;-95
2023/03/06 04:37:45;;;;;;;1.58;0.52;;;;;;;11.73;100.00;98890.13;7400182;19;20081;-94
2023/03/06 04:40:20;;;;;;;0.30;0.30;;;;;;;11.80;100.00;98886.78;7401270;19;20011;-95
2023/03/06 04:42:47;;;;;;;0.80;0.80;;;;;;;11.82;100.00;98889.88;7400316;19;20018;-94
2023/03/06 04:45:14;;;;;;;0.85;0.60;;;;;;;11.78;100.00;98883.75;7398500;19;20011;-95
2023/03/06 04:47:41;;;;;;;12.98;0.80;;;;;;;11.60;100.00;98873.09;7402372;19;20018;-94
2023/03/06 04:50:09;;;;;;;0.40;0.40;;;;;;;11.30;100.00;98877.63;7399908;19;20461;-95
2023/03/06 04:52:35;;;;;;;0.93;0.80;;;;;;;8.91;100.00;98877.28;7397542;19;20465;-95
2023/03/06 04:55:07;;;;;;;0.32;0.30;;;;;;;9.97;100.00;98871.44;7398173;19;20021;-94
2023/03/06 04:57:35;;;;;;;0.50;0.50;;;;;;;10.58;100.00;98864.22;7396819;19;20022;-94
2023/03/06 05:00:03;;;;;;;1.27;0.93;;;;;;;10.82;100.00;98860.25;7398208;19;20335;-95
2023/03/06 05:02:29;;;;;;;2.35;0.98;;;;;;;10.61;100.00;98868.78;7398348;19;20010;-94
2023/03/06 05:04:55;;;;;;;0.50;0.50;;;;;;;10.86;100.00;98864.34;7396306;19;20013;-94
2023/03/06 05:07:22;;;;;;;1.00;1.00;;;;;;;9.09;100.00;98866.66;7399475;19;20048;-93
2023/03/06 05:09:48;;;;;;;0.52;0.52;;;;;;;6.90;100.00;98860.88;7398618;19;20018;-94
2023/03/06 05:12:14;;;;;;;2.00;1.02;;;;;;;7.29;100.00;98858.81;7398078;19;20022;-94
2023/03/06 05:14:40;;;;;;;2.70;0.50;;;;;;;8.27;100.00;98852.53;7397569;19;20022;-94
2023/03/06 05:17:06;;;;;;;3.05;1.27;;;;;;;6.36;100.00;98855.75;7398985;19;20111;-94
2023/03/06 05:19:32;;;;;;;2.10;1.42;;;;;;;7.21;100.00;98847.31;7399502;19;20370;-94
2023/03/06 05:21:59;;;;;;;8.52;0.98;;;;;;;9.33;100.00;98848.94;7402565;19;20349;-94
2023/03/06 05:24:25;;;;;;;0.40;0.40;;;;;;;8.72;100.00;98843.50;7396389;19;20683;-94
2023/03/06 05:26:51;;;;;;;0.68;0.60;;;;;;;11.62;100.00;98837.09;7399165;19;20014;-93
2023/03/06 05:29:17;;;;;;;0.73;0.70;;;;;;;11.64;100.00;98837.34;7398392;19;20029;-94
2023/03/06 05:31:44;;;;;;;0.98;0.77;;;;;;;12.28;100.00;98832.72;7399502;19;20021;-93
2023/03/06 05:34:14;;;;;;;0.50;0.50;;;;;;;12.38;100.00;98829.13;7397042;19;20011;-94
2023/03/06 05:36:41;;;;;;;0.70;0.70;;;;;;;11.90;100.00;98832.28;7395632;19;20014;-94
2023/03/06 05:39:07;;;;;;;0.82;0.82;;;;;;;10.45;100.00;98844.44;7401628;19;20484;-92
2023/03/06 05:41:33;;;;;;;0.50;0.50;;;;;;;11.97;100.00;98826.19;7399433;19;20018;-94
2023/03/06 05:44:00;;;;;;;4.03;0.80;;;;;;;10.61;100.00;98829.81;7397363;19;20011;-95
2023/03/06 05:46:26;;;;;;;3.80;1.10;;;;;;;10.81;100.00;98834.44;7397463;19;20375;-94
2023/03/06 05:48:56;;;;;;;1.38;0.80;;;;;;;9.43;100.00;98826.03;7396815;19;20473;-94
2023/03/06 05:51:23;;;;;;;1.67;1.03;;;;;;;8.26;100.00;98826.03;7400825;19;20359;-94
2023/03/06 05:53:49;;;;;;;0.93;0.75;;;;;;;11.22;100.00;98818.03;7396126;19;20255;-94
2023/03/06 05:56:16;;;;;;;0.70;0.70;;;;;;;9.72;100.00;98822.22;7395314;19;20025;-93
2023/03/06 05:58:42;;;;;;;1.02;0.93;;;;;;;8.00;100.00;98814.81;7396066;19;20070;-94
2023/03/06 06:01:16;;;;;;;2.50;0.88;;;;;;;7.19;100.00;98824.91;7399018;19;20465;-94
2023/03/06 06:03:42;;;;;;;0.40;0.40;;;;;;;10.68;100.00;98823.75;7397187;19;20047;-93
2023/03/06 06:06:11;;;;;;;1.83;1.35;;;;;;;11.38;100.00;98811.75;7395721;19;20057;-93
2023/03/06 06:08:37;;;;;;;1.55;1.00;;;;;;;11.71;100.00;98806.19;7396677;19;20066;-93
2023/03/06 06:11:05;;;;;;;1.38;1.27;;;;;;;11.75;100.00;98803.91;7398508;19;20014;-94
2023/03/06 06:13:32;;;;;;;0.38;0.38;;;;;;;9.25;100.00;98806.19;7396218;19;20047;-93
2023/03/06 06:15:58;;;;;;;1.17;0.82;;;;;;;11.25;100.00;98808.69;7395588;19;20014;-94
2023/03/06 06:18:24;;;;;;;0.65;0.65;;;;;;;11.89;100.00;98802.84;7399586;19;20342;-94
2023/03/06 06:20:50;;;;;;;0.57;0.57;;;;;;;12.08;100.00;98798.25;7395660;19;20011;-93
2023/03/06 06:23:17;;;;;;;0.95;0.88;;;;;;;12.40;100.00;98792.31;7393900;19;20014;-94
2023/03/06 06:25:43;;;;;;;1.02;0.70;;;;;;;12.75;100.00;98789.63;7393756;19;20224;-93
2023/03/06 06:28:11;;;;;;;1.48;0.65;;;;;;;13.65;100.00;98792.03;7396897;19;20015;-94
2023/03/06 06:30:37;;;;;;;0.52;0.52;;;;;;;13.19;100.00;98786.56;7397828;19;20007;-94
2023/03/06 06:33:03;;;;;;;1.15;0.90;;;;;;;14.04;100.00;98782.50;7395824;19;20014;-94
2023/03/06 06:35:29;;;;;;;0.63;0.38;;;;;;;13.54;100.00;98780.94;7394949;19;20015;-94
2023/03/06 06:37:55;;;;;;;0.60;0.47;;;;;;;16.51;100.00;98770.78;7393284;19;20044;-93
2023/03/06 06:40:23;;;;;;;1.85;0.75;;;;;;;15.12;100.00;98772.47;7396815;19;20018;-94
2023/03/06 06:42:51;;;;;;;0.75;0.63;;;;;;;11.49;100.00;98781.06;7397402;19;20014;-94
2023/03/06 06:45:17;;;;;;;0.55;0.55;;;;;;;13.30;100.00;98774.53;7400023;19;20035;-93
2023/03/06 06:47:44;;;;;;;1.88;1.35;;;;;;;14.52;100.00;98776.88;7406737;19;20010;-93
2023/03/06 06:50:13;;;;;;;22.35;3.38;;;;;;;14.43;100.00;98774.44;7402359;19;20044;-93
2023/03/06 06:52:39;;;;;;;16.63;1.33;;;;;;;8.89;100.00;98779.84;7404124;19;20011;-94
2023/03/06 06:55:06;;;;;;;6.07;1.23;;;;;;;11.43;100.00;98767.13;7401792;19;20011;-93
2023/03/06 06:57:32;;;;;;;1.70;1.45;;;;;;;8.19;100.00;98779.25;7400690;19;20341;-94
2023/03/06 06:59:58;;;;;;;0.98;0.98;;;;;;;7.89;100.00;98781.41;7404903;19;20074;-94
2023/03/06 07:02:24;;;;;;;1.13;1.08;;;;;;;6.42;100.00;98781.97;7408565;19;20010;-94
2023/03/06 07:04:50;;;;;;;0.75;0.52;;;;;;;11.38;100.00;98772.72;7401866;19;20039;-94
2023/03/06 07:07:16;;;;;;;0.60;0.60;;;;;;;7.05;100.00;98778.59;7403594;19;20052;-92
2023/03/06 07:09:43;;;;;;;1.33;1.23;;;;;;;8.93;100.00;98770.03;7402651;19;20452;-93
2023/03/06 07:12:09;;;;;;;0.65;0.57;;;;;;;11.15;100.00;98771.19;7405404;19;20014;-93
2023/03/06 07:14:35;;;;;;;3.13;1.25;;;;;;;13.39;100.00;98769.38;7400225;19;20018;-92
2023/03/06 07:17:01;;;;;;;0.70;0.70;;;;;;;11.04;100.00;98754.47;7401015;19;20014;-92
2023/03/06 07:19:27;;;;;;;1.40;1.30;;;;;;;11.98;100.00;98757.94;7400889;19;20015;-92
2023/03/06 07:21:54;;;;;;;2.80;0.98;;;;;;;12.13;100.00;98752.81;7404385;19;20768;-92
2023/03/06 07:24:20;;;;;;;1.58;0.88;;;;;;;12.30;100.00;98761.13;7399806;19;20022;-93
2023/03/06 07:26:47;;;;;;;2.45;1.45;;;;;;;11.49;100.00;98755.97;7405662;19;20015;-92
2023/03/06 07:29:13;;;;;;;2.50;1.83;;;;;;;11.77;100.00;98747.59;7402339;19;20413;-92
2023/03/06 07:31:40;;;;;;;4.03;1.45;;;;;;;9.96;100.00;98766.25;7404768;19;20019;-92
2023/03/06 07:34:06;;;;;;;8.02;1.75;;;;;;;11.21;100.00;98758.03;7404881;19;20011;-93
2023/03/06 07:36:33;;;;;;;1.73;1.63;;;;;;;12.07;100.00;98766.03;7404220;19;20014;-92
2023/03/06 07:38:59;;;;;;;3.17;1.02;;;;;;;14.32;100.00;98757.75;7404718;19;20082;-93
2023/03/06 07:41:25;;;;;;;3.38;1.40;;;;;;;12.91;100.00;98755.22;7403652;19;20468;-92
2023/03/06 07:43:52;;;;;;;1.23;1.05;;;;;;;7.59;100.00;98766.88;7405902;19;20031;-93
2023/03/06 07:46:18;;;;;;;1.90;1.80;;;;;;;11.46;100.00;98762.56;7399385;19;20014;-93
2023/03/06 07:48:44;;;;;;;3.72;1.13;;;;;;;11.48;100.00;98754.44;7400822;19;20018;-93
2023/03/06 07:51:16;;;;;;;4.50;1.50;;;;;;;11.36;100.00;98764.09;7402765;19;20027;-93
2023/03/06 07:53:43;;;;;;;0.65;0.65;;;;;;;6.77;100.00;98761.53;7398820;19;20303;-92
2023/03/06 07:56:10;;;;;;;4.47;0.85;;;;;;;6.54;100.00;98759.56;7398978;19;20017;-93
2023/03/06 07:58:39;;;;;;;1.55;0.85;;;;;;;5.88;100.00;98761.78;7399389;19;20043;-93
2023/03/06 08:01:07;;;;;;;5.07;0.70;;;;;;;5.68;100.00;98767.09;7401973;19;20022;-93
2023/03/06 08:03:34;;;;;;;1.85;1.75;;;;;;;5.70;100.00;98761.88;7400142;19;20091;-92
2023/03/06 08:06:12;;;;;;;4.65;1.30;;;;;;;5.56;100.00;98754.28;7403026;19;20334;-93
2023/03/06 08:08:40;;;;;;;1.70;1.50;;;;;;;5.91;100.00;98760.84;7400710;19;20014;-92
2023/03/06 08:11:07;;;;;;;1.20;0.98;;;;;;;10.44;100.00;98742.69;7400857;19;20006;-92
2023/03/06 08:13:34;;;;;;;1.85;1.52;;;;;;;11.33;100.00;98737.22;7400845;19;20014;-92
2023/03/06 08:16:01;;;;;;;3.00;2.13;;;;;;;11.89;100.00;98733.09;7396875;19;20032;-93
2023/03/06 08:18:28;;;;;;;3.95;1.15;;;;;;;10.87;100.00;98745.34;7402591;19;20018;-92
2023/03/06 08:21:05;;;;;;;0.60;0.57;;;;;;;7.12;100.00;98739.47;7399665;19;20019;-92
2023/03/06 08:23:33;;;;;;;2.85;1.98;;;;;;;6.41;100.00;98744.50;7397098;19;20649;-93
2023/03/06 08:26:02;;;;;;;1.88;1.70;;;;;;;6.25;100.00;98753.22;7401356;19;20040;-92
2023/03/06 08:28:28;;;;;;;2.42;1.70;;;;;;;6.01;100.00;98750.50;7399972;19;20058;-92
2023/03/06 08:30:55;;;;;;;2.03;1.85;;;;;;;6.04;100.00;98739.25;7401923;19;20085;-92
2023/03/06 08:33:22;;;;;;;4.82;1.77;;;;;;;6.04;100.00;98736.50;7400418;19;20014;-92
2023/03/06 08:35:49;;;;;;;15.65;1.75;;;;;;;10.29;100.00;98725.44;7395670;19;20078;-90
2023/03/06 08:38:15;;;;;;;4.75;1.48;;;;;;;12.09;100.00;98724.44;7397971;19;20015;-90
2023/03/06 08:40:41;;;;;;;3.78;1.40;;;;;;;12.59;100.00;98712.25;7397550;19;20360;-92
2023/03/06 08:43:09;;;;;;;1.35;1.13;;;;;;;12.88;100.00;98719.94;7396634;19;20014;-92
2023/03/06 08:45:35;;;;;;;3.30;1.23;;;;;;;13.06;100.00;98722.09;7397595;19;20010;-92
2023/03/06 08:48:01;;;;;;;1.63;1.52;;;;;;;13.16;100.00;98716.97;7402411;19;20011;-92
2023/03/06 08:50:27;;;;;;;2.58;1.45;;;;;;;13.22;100.00;98720.47;7400535;19;20038;-92
2023/03/06 08:52:54;;;;;;;3.80;1.17;;;;;;;13.23;100.00;98728.31;7398516;19;20019;-92
2023/03/06 08:55:20;;;;;;;2.10;1.42;;;;;;;13.29;100.00;98715.06;7399837;19;20018;-92
2023/03/06 08:57:46;;;;;;;3.75;1.73;;;;;;;13.36;100.00;98714.47;7395874;19;20429;-92
2023/03/06 09:00:13;;;;;;;6.55;1.83;;;;;;;12.68;100.00;98720.31;7399860;19;20019;-92
2023/03/06 09:02:39;;;;;;;2.20;1.65;;;;;;;8.74;100.00;98718.88;7395008;19;20018;-92
2023/03/06 09:05:07;;;;;;;2.78;1.88;;;;;;;9.34;100.00;98720.63;7392890;19;20034;-92
2023/03/06 09:07:34;;;;;;;0.80;0.80;;;;;;;7.86;100.00;98701.97;7397323;19;20019;-92
2023/03/06 09:10:00;;;;;;;2.33;1.38;;;;;;;10.63;100.00;98704.03;7400865;19;20028;-92
2023/03/06 09:12:27;;;;;;;1.98;1.23;;;;;;;13.38;100.00;98706.31;7403127;19;20017;-92
2023/03/06 09:14:53;;;;;;;2.17;0.85;;;;;;;14.16;100.00;98697.09;7397908;19;20037;-92
2023/03/06 09:17:19;;;;;;;2.95;1.60;;;;;;;10.55;100.00;98692.63;7396900;19;20086;-91
2023/03/06 09:19:45;;;;;;;0.50;0.50;;;;;;;12.44;100.00;98689.50;7396583;19;20014;-91
2023/03/06 09:22:11;;;;;;;2.60;0.88;;;;;;;10.98;100.00;98684.06;7402074;19;20014;-93
2023/03/06 09:24:44;;;;;;;0.30;0.30;;;;;;;12.31;100.00;98673.31;7393263;19;20014;-58
2023/03/06 09:27:10;;;;;;;0.70;0.30;;;;;;;13.84;100.00;98674.56;7393322;19;20023;-58
2023/03/06 09:29:36;;;;;;;1.77;0.68;;;;;;;14.19;100.00;98677.19;7393125;19;20408;-58
2023/03/06 09:32:02;;;;;;;0.85;0.45;;;;;;;13.65;100.00;98674.53;7396977;19;20014;-58
2023/03/06 09:34:28;;;;;;;1.00;0.73;;;;;;;8.77;100.00;98670.69;7393835;19;20010;-58
2023/03/06 09:36:54;;;;;;;0.63;0.63;;;;;;;8.39;100.00;98668.34;7393539;19;20074;-58
2023/03/06 09:39:21;;;;;;;3.10;0.55;;;;;;;10.01;100.00;98666.13;7395270;19;20021;-58
2023/03/06 09:41:49;;;;;;;0.45;0.45;;;;;;;13.64;100.00;98670.22;7397633;19;20015;-58
2023/03/06 09:44:28;;;;;;;0.32;0.32;;;;;;;12.94;100.00;98664.75;7393492;19;20041;-58
2023/03/06 09:47:10;;;;;;;0.73;0.73;;;;;;;13.45;100.00;98665.84;7395647;19;20485;-58
2023/03/06 09:49:36;;;;;;;0.60;0.60;;;;;;;12.82;100.00;98661.28;7396916;19;20017;-58
2023/03/06 09:52:17;;;;;;;0.88;0.40;;;;;;;10.88;100.00;98666.06;7397379;19;20013;-58
2023/03/06 09:54:45;;;;;;;0.47;0.45;;;;;;;11.55;100.00;98658.38;7394063;19;20039;-57
2023/03/06 09:57:23;;;;;;;0.35;0.32;;;;;;;10.32;100.00;98663.22;7393973;19;20046;-57
2023/03/06 09:59:54;;;;;;;5.43;0.55;;;;;;;10.37;100.00;98658.94;7395634;19;20011;-59
2023/03/06 10:02:45;;;;;;;0.52;0.50;;;;;;;12.01;100.00;98650.91;7398569;19;20101;-57
2023/03/06 10:05:23;;;;;;;0.10;0.10;;;;;;;9.84;100.00;98656.97;7394550;19;20078;-57
2023/03/06 10:07:52;;;;;;;0.57;0.57;;;;;;;9.45;100.00;98670.69;7394440;19;20015;-57
2023/03/06 10:10:25;;;;;;;9.63;0.57;;;;;;;8.59;100.00;98665.50;7393917;19;20022;-59
2023/03/06 10:13:05;;;;;;;6.45;1.17;;;;;;;8.26;100.00;98662.41;7397600;19;20107;-57
2023/03/06 10:15:34;;;;;;;0.43;0.43;;;;;;;8.52;100.00;98663.16;7398647;19;20015;-59
2023/03/06 10:18:03;;;;;;;1.10;1.00;;;;;;;11.00;100.00;98659.25;7397677;19;20018;-59
2023/03/06 10:20:51;;;;;;;2.22;0.88;;;;;;;8.95;100.00;98656.47;7394737;19;20329;-59
2023/03/06 10:23:51;;;;;;;0.85;0.45;;;;;;;12.91;100.00;98649.03;7392622;19;20340;-59
2023/03/06 10:26:36;;;;;;;0.55;0.55;;;;;;;11.68;100.00;98651.03;7392131;19;20010;-59
2023/03/06 10:29:11;;;;;;;2.33;0.80;;;;;;;8.80;100.00;98650.28;7391839;19;20375;-59
2023/03/06 10:31:43;;;;;;;0.95;0.50;;;;;;;9.85;100.00;98661.28;7395231;19;20019;-59
2023/03/06 10:34:18;;;;;;;2.38;0.60;;;;;;;11.35;100.00;98651.84;7392247;19;20485;-59
2023/03/06 10:36:44;;;;;;;0.20;0.20;;;;;;;9.23;100.00;98645.53;7392100;19;20010;-59
2023/03/06 10:39:18;;;;;;;2.20;0.75;;;;;;;9.26;100.00;98657.69;7393000;19;20022;-59
2023/03/06 10:41:45;;;;;;;0.50;0.50;;;;;;;8.07;100.00;98644.53;7396935;19;20499;-59
2023/03/06 10:44:11;;;;;;;0.22;0.22;;;;;;;8.62;100.00;98642.31;7391618;19;20049;-59
2023/03/06 10:46:43;;;;;;;0.73;0.73;;;;;;;9.75;100.00;98634.94;7393362;19;20014;-59
2023/03/06 10:49:24;;;;;;;1.00;0.93;;;;;;;9.40;100.00;98634.53;7392602;19;20010;-59
2023/03/06 10:51:56;;;;;;;3.03;0.70;;;;;;;8.64;100.00;98634.25;7396049;19;20355;-59
2023/03/06 10:54:23;;;;;;;0.63;0.63;;;;;;;14.08;100.00;98626.19;7393956;19;20328;-59
2023/03/06 10:56:49;;;;;;;3.05;0.70;;;;;;;14.85;100.00;98627.88;7392420;19;20011;-59
2023/03/06 10:59:28;;;;;;;1.75;0.65;;;;;;;15.49;100.00;98630.59;7392913;19;20014;-59
2023/03/06 11:02:18;;;;;;;0.65;0.60;;;;;;;16.18;100.00;98622.53;7396857;19;20025;-58
2023/03/06 11:04:50;;;;;;;3.38;1.08;;;;;;;17.56;100.00;98620.50;7393405;19;20011;-59
2023/03/06 11:07:19;;;;;;;11.38;0.85;;;;;;;16.56;100.00;98623.00;7392819;19;20341;-58
2023/03/06 11:09:57;;;;;;;0.95;0.93;;;;;;;17.32;99.79;98619.56;7391969;19;20010;-59
2023/03/06 11:12:38;;;;;;;1.33;1.00;;;;;;;18.50;91.29;98609.28;7397171;19;20015;-60
2023/03/06 11:15:13;;;;;;;1.90;1.00;;;;;;;19.19;84.48;98611.63;7396079;19;20369;-60
2023/03/06 11:17:53;;;;;;;0.70;0.70;;;;;;;20.46;77.88;98614.72;7393267;19;20470;-60
2023/03/06 11:20:27;;;;;;;0.63;0.63;;;;;;;18.72;80.25;98619.88;7390806;19;20015;-58
2023/03/06 11:22:55;;;;;;;0.75;0.68;;;;;;;18.24;86.09;98609.56;7392783;19;20070;-60
2023/03/06 11:25:28;;;;;;;1.83;0.98;;;;;;;13.17;100.00;98617.81;7391977;19;20463;-59
2023/03/06 11:28:01;;;;;;;2.28;0.98;;;;;;;15.19;100.00;98602.81;7389789;19;20006;-60
2023/03/06 11:30:41;;;;;;;0.90;0.50;;;;;;;18.91;89.56;98603.34;7398857;19;20014;-59
2023/03/06 11:33:16;;;;;;;0.85;0.82;;;;;;;17.94;85.97;98604.56;7399766;19;20027;-59
2023/03/06 11:35:55;;;;;;;0.60;0.60;;;;;;;16.29;94.44;98602.63;7399351;19;20028;-59